Time;durP1;ratioP1;P1;durP2;ratioP2;P2;SDS_P1;SDS_P2;PMS_P1;PMS_P2;Temp;Humidity;BMP_temperature;BMP_pressure;BME280_temperature;BME280_humidity;BME280_pressure;Samples;Min_cycle;Max_cycle;Signal;HPM_P1;HPM_P2
2023/01/04 00:01:37;;;;;;;13.00;9.13;;;5.60;99.90;;;;;;5053919;28;20493;-67
2023/01/04 00:04:06;;;;;;;10.43;8.07;;;5.60;99.90;;;;;;5053702;28;20455;-67
2023/01/04 00:06:32;;;;;;;11.07;8.27;;;5.60;99.90;;;;;;5053359;28;20542;-67
2023/01/04 00:08:59;;;;;;;16.80;11.00;;;5.60;99.90;;;;;;5053740;28;20465;-68
2023/01/04 00:11:27;;;;;;;10.70;8.20;;;5.60;99.90;;;;;;5053937;28;20455;-68
2023/01/04 00:13:57;;;;;;;10.70;7.50;;;5.60;99.90;;;;;;5057179;28;20455;-68
2023/01/04 00:16:26;;;;;;;10.40;8.20;;;5.50;99.90;;;;;;5058357;28;20451;-68
2023/01/04 00:18:54;;;;;;;10.80;8.17;;;5.50;99.90;;;;;;5058349;28;20451;-69
2023/01/04 00:21:24;;;;;;;10.63;7.90;;;5.50;99.90;;;;;;5058111;28;20475;-68
2023/01/04 00:23:53;;;;;;;10.33;8.23;;;5.50;99.90;;;;;;5058142;28;20443;-66
2023/01/04 00:26:22;;;;;;;11.47;8.27;;;5.50;99.90;;;;;;5058285;28;20498;-68
2023/01/04 00:28:53;;;;;;;10.30;7.60;;;5.50;99.90;;;;;;5057527;28;20459;-69
2023/01/04 00:31:20;;;;;;;8.43;6.87;;;5.50;99.90;;;;;;5057512;28;20453;-68
2023/01/04 00:33:47;;;;;;;9.70;7.53;;;5.50;99.90;;;;;;5057424;28;20757;-68
2023/01/04 00:36:15;;;;;;;11.67;8.20;;;5.50;99.90;;;;;;5057223;28;20553;-67
2023/01/04 00:38:43;;;;;;;18.40;8.70;;;5.50;99.90;;;;;;5057764;28;20759;-68
2023/01/04 00:41:11;;;;;;;10.93;8.50;;;5.50;99.90;;;;;;5057983;28;20899;-68
2023/01/04 00:43:38;;;;;;;9.30;7.50;;;5.50;99.90;;;;;;5058244;28;20469;-68
2023/01/04 00:46:05;;;;;;;9.33;7.53;;;5.50;99.90;;;;;;5058190;28;20455;-68
2023/01/04 00:48:32;;;;;;;10.80;8.90;;;5.50;99.90;;;;;;5056715;28;20495;-69
2023/01/04 00:50:59;;;;;;;9.27;7.77;;;5.50;99.90;;;;;;5057023;28;20451;-69
2023/01/04 00:53:26;;;;;;;8.20;7.20;;;5.50;99.90;;;;;;5057021;28;20463;-67
2023/01/04 00:56:00;;;;;;;13.47;8.00;;;5.50;99.90;;;;;;5057584;28;20451;-68
2023/01/04 00:58:27;;;;;;;10.93;8.47;;;5.50;99.90;;;;;;5056896;28;20738;-67
2023/01/04 01:00:54;;;;;;;10.60;7.87;;;5.50;99.90;;;;;;5056453;28;20528;-68
2023/01/04 01:03:21;;;;;;;12.07;8.07;;;5.50;99.90;;;;;;5056852;28;20459;-68
2023/01/04 01:05:47;;;;;;;10.57;7.97;;;5.50;99.90;;;;;;5056408;28;20546;-68
2023/01/04 01:08:26;;;;;;;9.37;6.60;;;5.60;99.90;;;;;;5056169;28;20545;-67
2023/01/04 01:10:55;;;;;;;10.70;7.70;;;5.50;99.90;;;;;;5056471;28;20530;-68
2023/01/04 01:13:23;;;;;;;9.50;7.63;;;5.50;99.90;;;;;;5056531;28;20937;-68
2023/01/04 01:15:49;;;;;;;8.10;7.13;;;5.50;99.90;;;;;;5056366;28;20550;-68
2023/01/04 01:18:16;;;;;;;8.17;7.37;;;5.50;99.90;;;;;;5056429;28;20566;-68
2023/01/04 01:20:44;;;;;;;8.10;6.40;;;5.50;99.90;;;;;;5055818;28;20481;-68
2023/01/04 01:23:13;;;;;;;9.13;8.03;;;5.50;99.90;;;;;;5055976;28;20570;-68
2023/01/04 01:25:40;;;;;;;8.27;7.00;;;5.50;99.90;;;;;;5055458;28;20455;-67
2023/01/04 01:28:09;;;;;;;9.87;6.63;;;5.50;99.90;;;;;;5056355;28;20455;-67
2023/01/04 01:30:40;;;;;;;11.50;6.97;;;5.50;99.90;;;;;;5056022;28;20451;-67
2023/01/04 01:33:07;;;;;;;7.17;6.53;;;5.50;99.90;;;;;;5056223;28;20455;-69
2023/01/04 01:35:34;;;;;;;14.13;9.20;;;5.50;99.90;;;;;;5056622;28;20455;-64
2023/01/04 01:38:01;;;;;;;8.53;7.07;;;5.50;99.90;;;;;;5056566;28;20513;-67
2023/01/04 01:40:28;;;;;;;9.30;6.80;;;5.50;99.90;;;;;;5056376;28;20461;-70
2023/01/04 01:42:55;;;;;;;9.10;6.27;;;5.50;99.90;;;;;;5056570;28;20782;-68
2023/01/04 01:45:30;;;;;;;8.90;6.57;;;5.50;99.90;;;;;;5057159;28;20494;-68
2023/01/04 01:48:01;;;;;;;9.83;6.87;;;5.50;99.90;;;;;;5057064;28;20443;-68
2023/01/04 01:50:32;;;;;;;7.40;6.47;;;5.50;99.90;;;;;;5056050;28;20466;-69
2023/01/04 01:53:01;;;;;;;8.80;7.10;;;5.50;99.90;;;;;;5056072;28;20449;-68
2023/01/04 01:55:30;;;;;;;8.70;6.40;;;5.50;99.90;;;;;;5055683;28;20475;-67
2023/01/04 01:57:58;;;;;;;7.00;6.30;;;5.50;99.90;;;;;;5055656;28;20467;-68
2023/01/04 02:00:28;;;;;;;7.00;5.60;;;5.50;99.90;;;;;;5055229;28;20459;-67
2023/01/04 02:03:07;;;;;;;7.67;6.20;;;5.50;99.90;;;;;;5056093;28;20487;-68
2023/01/04 02:05:35;;;;;;;9.83;6.40;;;5.50;99.90;;;;;;5055824;28;20443;-67
2023/01/04 02:08:03;;;;;;;8.10;6.10;;;5.50;99.90;;;;;;5055582;28;20459;-67
2023/01/04 02:10:32;;;;;;;14.50;6.60;;;5.60;99.90;;;;;;5055649;28;20465;-68
2023/01/04 02:13:02;;;;;;;7.00;5.93;;;5.50;99.90;;;;;;5055563;28;20468;-67
2023/01/04 02:15:40;;;;;;;7.17;5.87;;;5.50;99.90;;;;;;5055496;28;20811;-67
2023/01/04 02:18:12;;;;;;;9.33;6.17;;;5.50;99.90;;;;;;5055912;28;20525;-67
2023/01/04 02:20:44;;;;;;;7.87;6.70;;;5.50;99.90;;;;;;5055596;28;20771;-67
2023/01/04 02:23:49;;;;;;;7.70;5.93;;;5.50;99.90;;;;;;5055280;28;20479;-66
2023/01/04 02:26:57;;;;;;;9.27;5.97;;;5.50;99.90;;;;;;5055791;28;20717;-66
2023/01/04 02:29:49;;;;;;;7.90;5.80;;;5.50;99.90;;;;;;5054902;28;20526;-67
2023/01/04 02:32:27;;;;;;;10.47;6.63;;;5.50;99.90;;;;;;5055305;28;20526;-67
2023/01/04 02:35:00;;;;;;;8.60;6.20;;;5.40;99.90;;;;;;5055220;28;20443;-67
2023/01/04 02:37:37;;;;;;;6.97;6.27;;;5.40;99.90;;;;;;5055183;28;20772;-67
2023/01/04 02:40:12;;;;;;;7.80;6.00;;;5.30;99.90;;;;;;5054884;28;20453;-67
2023/01/04 02:45:48;;;;;;;7.33;6.67;;;5.30;99.90;;;;;;5055373;28;20443;-67
2023/01/04 02:51:01;;;;;;;8.97;6.73;;;5.30;99.90;;;;;;5054509;28;20805;-70
2023/01/04 02:53:31;;;;;;;7.97;6.87;;;5.20;99.90;;;;;;5054652;28;20459;-69
2023/01/04 02:56:14;;;;;;;7.40;6.57;;;5.20;99.90;;;;;;5054767;28;20795;-69
2023/01/04 02:59:03;;;;;;;8.43;6.73;;;5.20;99.90;;;;;;5054836;28;20473;-69
2023/01/04 03:07:27;;;;;;;15.60;6.67;;;5.00;99.90;;;;;;5054861;28;20816;-69
2023/01/04 03:10:00;;;;;;;8.37;6.43;;;5.00;99.90;;;;;;5054956;28;20443;-69
2023/01/04 03:12:31;;;;;;;14.80;7.70;;;4.90;99.90;;;;;;5054609;28;20439;-69
2023/01/04 03:15:03;;;;;;;7.07;6.20;;;4.90;99.90;;;;;;5056518;28;20459;-69
2023/01/04 03:17:35;;;;;;;8.83;6.17;;;4.90;99.90;;;;;;5056539;28;20914;-68
2023/01/04 03:20:06;;;;;;;9.00;6.00;;;5.00;99.90;;;;;;5057232;28;20514;-68
2023/01/04 03:36:47;;;;;;;9.00;6.40;;;5.00;99.90;;;;;;5056959;28;20422;-69
2023/01/04 03:50:45;;;;;;;6.23;5.50;;;5.00;99.90;;;;;;5055628;28;20430;-69
2023/01/04 03:53:15;;;;;;;7.87;6.37;;;5.00;99.90;;;;;;5055630;28;20443;-68
2023/01/04 03:55:44;;;;;;;7.40;6.50;;;5.00;99.90;;;;;;5055753;28;20495;-68
2023/01/04 03:58:11;;;;;;;7.90;6.47;;;4.90;99.90;;;;;;5055176;28;20463;-69
2023/01/04 04:00:38;;;;;;;8.47;5.80;;;4.90;99.90;;;;;;5055475;28;20979;-68
2023/01/04 04:03:09;;;;;;;8.83;6.40;;;4.90;99.90;;;;;;5056050;28;20475;-69
2023/01/04 04:08:28;;;;;;;6.30;5.63;;;5.00;99.90;;;;;;5056538;28;20426;-69
2023/01/04 04:10:56;;;;;;;6.67;5.70;;;4.90;99.90;;;;;;5056591;28;20443;-69
2023/01/04 04:13:24;;;;;;;6.90;6.20;;;5.00;99.90;;;;;;5056651;28;20451;-68
2023/01/04 04:15:53;;;;;;;7.90;6.40;;;5.00;99.90;;;;;;5056013;28;20459;-69
2023/01/04 04:18:20;;;;;;;7.87;6.13;;;4.90;99.90;;;;;;5057016;28;20459;-69
2023/01/04 04:20:46;;;;;;;7.20;6.50;;;4.90;99.90;;;;;;5055992;28;20455;-69
2023/01/04 04:23:13;;;;;;;7.10;6.37;;;4.90;99.90;;;;;;5055756;28;20985;-67
2023/01/04 04:25:41;;;;;;;6.70;6.00;;;4.90;99.90;;;;;;5056774;28;20468;-69
2023/01/04 04:28:08;;;;;;;8.60;6.50;;;4.80;99.90;;;;;;5056249;28;20455;-70
2023/01/04 04:30:36;;;;;;;7.90;6.77;;;4.90;99.90;;;;;;5056330;28;20795;-68
2023/01/04 04:33:03;;;;;;;9.00;6.23;;;4.90;99.90;;;;;;5057292;28;20455;-68
2023/01/04 04:35:29;;;;;;;7.97;6.27;;;4.80;99.90;;;;;;5056188;28;20855;-68
2023/01/04 04:37:56;;;;;;;7.57;6.77;;;4.80;99.90;;;;;;5057014;28;20991;-68
2023/01/04 04:43:09;;;;;;;7.67;6.90;;;4.80;99.90;;;;;;5056783;28;20788;-69
2023/01/04 04:45:36;;;;;;;9.70;6.70;;;4.80;99.90;;;;;;5056383;28;20512;-67
2023/01/04 04:48:03;;;;;;;9.07;6.67;;;4.80;99.90;;;;;;5056496;28;20503;-67
2023/01/04 04:50:30;;;;;;;7.23;6.27;;;4.80;99.90;;;;;;5055950;28;20455;-69
2023/01/04 04:52:57;;;;;;;10.70;6.70;;;4.90;99.90;;;;;;5056240;28;20461;-67
2023/01/04 04:55:24;;;;;;;6.93;6.07;;;4.80;99.90;;;;;;5055521;28;20916;-68
2023/01/04 04:57:51;;;;;;;7.40;5.97;;;4.80;99.90;;;;;;5056368;28;20469;-68
2023/01/04 05:00:19;;;;;;;7.17;6.27;;;4.90;99.90;;;;;;5057300;28;20923;-69
2023/01/04 05:02:46;;;;;;;8.50;6.63;;;4.90;99.90;;;;;;5059135;28;20489;-68
2023/01/04 05:05:13;;;;;;;7.40;5.90;;;4.90;99.90;;;;;;5059231;28;20459;-68
2023/01/04 05:07:40;;;;;;;8.40;5.87;;;5.00;99.90;;;;;;5059092;28;20791;-67
2023/01/04 05:10:07;;;;;;;11.77;6.70;;;5.00;99.90;;;;;;5059404;28;20455;-68
2023/01/04 05:15:19;;;;;;;9.33;6.10;;;5.10;99.90;;;;;;5059059;28;20427;-67
2023/01/04 05:17:46;;;;;;;11.90;6.47;;;5.10;99.90;;;;;;5059043;28;20762;-68
2023/01/04 05:20:13;;;;;;;12.10;5.50;;;5.10;99.90;;;;;;5058302;28;20920;-68
2023/01/04 05:22:40;;;;;;;9.13;6.30;;;5.10;99.90;;;;;;5058913;28;20491;-68
2023/01/04 05:25:08;;;;;;;10.30;6.13;;;5.10;99.90;;;;;;5058396;28;20577;-68
2023/01/04 05:27:36;;;;;;;8.93;6.10;;;5.20;99.90;;;;;;5058179;28;20465;-68
2023/01/04 05:32:49;;;;;;;7.53;5.90;;;5.20;99.90;;;;;;5057831;28;20439;-68
2023/01/04 05:35:16;;;;;;;8.20;5.87;;;5.20;99.90;;;;;;5058134;28;20549;-68
2023/01/04 05:37:43;;;;;;;6.67;5.10;;;5.30;99.90;;;;;;5058209;28;20520;-67
2023/01/04 05:40:11;;;;;;;7.00;5.73;;;5.30;99.90;;;;;;5057790;28;20747;-67
2023/01/04 05:42:38;;;;;;;7.20;6.37;;;5.30;99.90;;;;;;5057461;28;20485;-68
2023/01/04 05:45:05;;;;;;;8.00;6.03;;;5.40;99.90;;;;;;5057770;28;20455;-69
2023/01/04 05:47:32;;;;;;;11.80;6.20;;;5.40;99.90;;;;;;5057581;28;20915;-68
2023/01/04 05:50:01;;;;;;;8.70;6.00;;;5.50;99.90;;;;;;5057828;28;20466;-68
2023/01/04 05:52:28;;;;;;;7.50;4.93;;;5.50;99.90;;;;;;5059113;28;20465;-68
2023/01/04 05:54:55;;;;;;;6.20;5.60;;;5.50;99.90;;;;;;5059524;28;20455;-68
2023/01/04 05:57:21;;;;;;;7.87;5.07;;;5.50;99.90;;;;;;5058930;28;20788;-68
2023/01/04 05:59:48;;;;;;;7.13;4.50;;;5.50;99.90;;;;;;5059307;28;20554;-67
2023/01/04 06:02:17;;;;;;;6.60;6.00;;;5.60;99.90;;;;;;5059486;28;20478;-68
2023/01/04 06:04:44;;;;;;;6.20;5.00;;;5.60;99.90;;;;;;5059283;28;20880;-67
2023/01/04 06:07:12;;;;;;;5.93;4.67;;;5.60;99.90;;;;;;5058992;28;20622;-68
2023/01/04 06:09:39;;;;;;;6.30;5.63;;;5.60;99.90;;;;;;5059012;28;20553;-68
2023/01/04 06:12:07;;;;;;;6.60;5.43;;;5.70;99.90;;;;;;5058957;28;20451;-68
2023/01/04 06:14:34;;;;;;;5.83;5.27;;;5.70;99.90;;;;;;5059709;28;20966;-69
2023/01/04 06:17:00;;;;;;;6.50;5.07;;;5.70;99.90;;;;;;5059336;28;20469;-69
2023/01/04 06:19:27;;;;;;;5.80;4.70;;;5.80;99.90;;;;;;5058566;28;20458;-68
2023/01/04 06:21:54;;;;;;;7.80;4.87;;;5.80;99.90;;;;;;5057787;28;20563;-69
2023/01/04 06:24:23;;;;;;;7.53;5.03;;;5.90;99.90;;;;;;5057868;28;20444;-68
2023/01/04 06:26:50;;;;;;;5.50;4.23;;;5.90;99.90;;;;;;5058426;28;20469;-68
2023/01/04 06:29:17;;;;;;;5.20;4.10;;;6.00;99.90;;;;;;5059295;28;20547;-69
2023/01/04 06:31:44;;;;;;;6.83;5.00;;;6.00;99.90;;;;;;5059832;28;20494;-68
2023/01/04 06:34:12;;;;;;;10.60;4.53;;;6.10;99.90;;;;;;5058472;28;20502;-68
2023/01/04 06:36:38;;;;;;;7.80;4.23;;;6.10;99.90;;;;;;5058104;28;20541;-69
2023/01/04 06:39:06;;;;;;;6.70;4.40;;;6.10;99.90;;;;;;5057990;28;20455;-69
2023/01/04 06:41:34;;;;;;;5.10;4.60;;;6.10;99.90;;;;;;5057734;28;20546;-69
2023/01/04 06:44:02;;;;;;;6.50;4.57;;;6.20;99.90;;;;;;5057145;28;20475;-68
2023/01/04 06:46:28;;;;;;;4.90;4.43;;;6.20;99.90;;;;;;5057424;28;20465;-68
2023/01/04 06:48:55;;;;;;;5.30;4.33;;;6.20;99.90;;;;;;5058020;28;20467;-68
2023/01/04 06:51:22;;;;;;;4.37;3.97;;;6.30;99.90;;;;;;5057385;28;20462;-68
2023/01/04 06:53:50;;;;;;;5.77;3.53;;;6.30;99.90;;;;;;5057535;28;20469;-68
2023/01/04 06:56:17;;;;;;;6.73;3.50;;;6.30;99.90;;;;;;5057301;28;20451;-68
2023/01/04 06:58:45;;;;;;;7.30;3.90;;;6.40;99.90;;;;;;5057048;28;20461;-69
2023/01/04 07:01:12;;;;;;;4.30;3.70;;;6.40;99.90;;;;;;5057062;28;20849;-68
2023/01/04 07:03:39;;;;;;;5.87;3.73;;;6.50;99.90;;;;;;5056295;28;20479;-68
2023/01/04 07:06:07;;;;;;;4.00;3.10;;;6.50;99.90;;;;;;5056302;28;20491;-68
2023/01/04 07:08:34;;;;;;;6.63;4.00;;;6.60;99.90;;;;;;5056752;28;20863;-68
2023/01/04 07:11:01;;;;;;;3.50;3.20;;;6.60;99.90;;;;;;5057235;28;20455;-69
2023/01/04 07:13:28;;;;;;;5.40;3.00;;;6.70;99.90;;;;;;5057162;28;20538;-69
2023/01/04 07:15:56;;;;;;;6.10;3.87;;;6.70;99.90;;;;;;5056815;28;20942;-69
2023/01/04 07:18:23;;;;;;;9.53;3.30;;;6.80;99.90;;;;;;5056814;28;20920;-68
2023/01/04 07:20:50;;;;;;;5.90;4.33;;;6.80;99.90;;;;;;5056808;28;20466;-69
2023/01/04 07:23:17;;;;;;;3.37;3.07;;;6.90;99.90;;;;;;5056199;28;20493;-68
2023/01/04 07:25:43;;;;;;;4.03;3.00;;;6.80;99.90;;;;;;5057199;28;20455;-70
2023/01/04 07:28:10;;;;;;;3.97;3.37;;;6.80;99.90;;;;;;5057389;28;20522;-68
2023/01/04 07:30:37;;;;;;;4.73;3.60;;;6.70;99.90;;;;;;5057996;28;20920;-69
2023/01/04 07:33:05;;;;;;;4.70;3.00;;;6.70;99.90;;;;;;5058154;28;20447;-67
2023/01/04 07:35:32;;;;;;;4.60;3.47;;;6.60;99.90;;;;;;5058645;28;20899;-69
2023/01/04 07:37:59;;;;;;;3.43;3.13;;;6.50;99.90;;;;;;5057688;28;20455;-68
2023/01/04 07:40:26;;;;;;;5.80;3.70;;;6.50;99.90;;;;;;5056362;28;20455;-68
2023/01/04 07:42:57;;;;;;;6.97;3.40;;;6.50;99.90;;;;;;5055575;28;20474;-68
2023/01/04 07:45:25;;;;;;;5.33;3.37;;;6.50;99.90;;;;;;5055345;28;20994;-67
2023/01/04 07:47:51;;;;;;;3.93;2.80;;;6.40;99.90;;;;;;5055698;28;20838;-69
2023/01/04 07:50:20;;;;;;;5.30;3.70;;;6.40;99.90;;;;;;5055773;28;20458;-68
2023/01/04 07:52:46;;;;;;;4.37;3.20;;;6.40;99.90;;;;;;5055431;28;20465;-68
2023/01/04 07:55:13;;;;;;;5.03;3.20;;;6.40;99.90;;;;;;5055560;28;20967;-69
2023/01/04 07:57:40;;;;;;;4.57;3.37;;;6.30;99.90;;;;;;5058578;28;20461;-67
2023/01/04 08:00:09;;;;;;;7.20;3.90;;;6.30;99.90;;;;;;5061017;28;20483;-67
2023/01/04 08:02:37;;;;;;;4.60;3.53;;;6.30;99.90;;;;;;5059209;28;20514;-69
2023/01/04 08:05:05;;;;;;;4.07;3.57;;;6.30;99.90;;;;;;5058499;28;20499;-67
2023/01/04 08:07:33;;;;;;;4.90;3.60;;;6.30;99.90;;;;;;5058175;28;20918;-68
2023/01/04 08:10:00;;;;;;;4.90;3.10;;;6.30;99.90;;;;;;5059639;28;20539;-67
2023/01/04 08:12:27;;;;;;;5.13;3.90;;;6.30;99.90;;;;;;5059461;28;20455;-68
2023/01/04 08:14:54;;;;;;;7.07;3.60;;;6.30;99.90;;;;;;5060475;28;20480;-68
2023/01/04 08:17:21;;;;;;;5.00;3.10;;;6.30;99.90;;;;;;5059298;28;20497;-69
2023/01/04 08:19:47;;;;;;;5.13;2.83;;;6.30;99.90;;;;;;5058655;28;20458;-68
2023/01/04 08:22:14;;;;;;;3.50;2.90;;;6.30;99.90;;;;;;5056597;28;20875;-68
2023/01/04 08:24:42;;;;;;;6.73;3.77;;;6.30;99.90;;;;;;5056783;28;20451;-68
2023/01/04 08:27:09;;;;;;;7.73;3.10;;;6.30;99.90;;;;;;5058690;28;20514;-68
2023/01/04 08:29:37;;;;;;;3.57;2.97;;;6.30;99.90;;;;;;5059757;28;20458;-67
2023/01/04 08:32:04;;;;;;;6.50;3.77;;;6.40;99.90;;;;;;5061505;28;20538;-68
2023/01/04 08:34:31;;;;;;;5.93;4.17;;;6.40;99.90;;;;;;5064347;28;20470;-68
2023/01/04 08:36:58;;;;;;;3.30;2.80;;;6.40;99.90;;;;;;5066277;28;20538;-68
2023/01/04 08:39:28;;;;;;;4.70;3.20;;;6.40;99.90;;;;;;5062956;28;20487;-68
2023/01/04 08:41:56;;;;;;;4.07;3.20;;;6.40;99.90;;;;;;5064712;28;20455;-69
2023/01/04 08:44:25;;;;;;;7.70;3.87;;;6.40;99.90;;;;;;5063404;28;20545;-68
2023/01/04 08:46:53;;;;;;;8.50;3.53;;;6.40;99.90;;;;;;5062693;28;20520;-68
2023/01/04 08:49:21;;;;;;;4.37;3.47;;;6.40;99.90;;;;;;5061410;28;20468;-68
2023/01/04 08:51:49;;;;;;;5.37;3.73;;;6.50;99.90;;;;;;5063819;28;20454;-69
2023/01/04 08:54:16;;;;;;;7.63;3.90;;;6.50;99.90;;;;;;5062721;28;20475;-68
2023/01/04 08:56:43;;;;;;;6.47;3.67;;;6.50;99.90;;;;;;5064341;28;20499;-69
2023/01/04 08:59:12;;;;;;;9.30;3.67;;;6.50;99.90;;;;;;5064537;28;20982;-68
2023/01/04 09:01:39;;;;;;;5.07;3.40;;;6.60;99.90;;;;;;5063239;28;20459;-69
2023/01/04 09:04:06;;;;;;;5.10;3.50;;;6.60;99.90;;;;;;5063457;28;20578;-68
2023/01/04 09:06:33;;;;;;;5.30;4.03;;;6.60;99.90;;;;;;5063782;28;20864;-69
2023/01/04 09:09:00;;;;;;;8.70;3.93;;;6.60;99.90;;;;;;5064877;28;20510;-69
2023/01/04 09:11:27;;;;;;;7.20;4.37;;;6.70;99.90;;;;;;5064840;28;20487;-67
2023/01/04 09:13:56;;;;;;;5.43;3.70;;;6.70;99.90;;;;;;5065914;28;20461;-68
2023/01/04 09:16:24;;;;;;;3.50;3.13;;;6.70;99.90;;;;;;5064894;28;20459;-68
2023/01/04 09:18:51;;;;;;;6.47;4.20;;;6.70;99.90;;;;;;5069144;28;20927;-68
2023/01/04 09:21:19;;;;;;;5.53;4.10;;;6.70;99.90;;;;;;5067294;28;20535;-67
2023/01/04 09:23:47;;;;;;;6.20;4.30;;;6.70;99.90;;;;;;5066793;28;20475;-67
2023/01/04 09:26:16;;;;;;;4.93;3.70;;;6.70;99.90;;;;;;5066514;28;20459;-67
2023/01/04 09:28:43;;;;;;;5.93;4.63;;;6.80;99.90;;;;;;5069414;28;20526;-68
2023/01/04 09:31:12;;;;;;;5.80;4.20;;;6.80;99.90;;;;;;5068770;28;20466;-68
2023/01/04 09:33:40;;;;;;;3.97;3.60;;;6.80;99.90;;;;;;5066111;28;20499;-68
2023/01/04 09:36:10;;;;;;;7.67;4.90;;;6.80;99.90;;;;;;5064249;28;20494;-68
2023/01/04 09:38:37;;;;;;;6.20;4.37;;;6.80;99.90;;;;;;5063781;28;20491;-68
2023/01/04 09:41:14;;;;;;;5.57;5.00;;;6.80;99.90;;;;;;5065237;28;20546;-68
2023/01/04 09:43:46;;;;;;;9.17;4.77;;;6.90;99.90;;;;;;5065066;28;20463;-68
2023/01/04 09:46:21;;;;;;;7.50;5.13;;;6.90;99.90;;;;;;5065269;28;20443;-68
2023/01/04 09:48:53;;;;;;;9.23;4.47;;;6.90;99.90;;;;;;5065222;28;20485;-69
2023/01/04 09:51:23;;;;;;;6.63;4.50;;;6.90;99.90;;;;;;5062343;28;20439;-68
2023/01/04 09:53:56;;;;;;;6.27;4.40;;;6.90;99.90;;;;;;5065204;28;20497;-68
2023/01/04 09:56:28;;;;;;;6.03;4.47;;;6.90;99.90;;;;;;5066088;28;20482;-69
2023/01/04 09:58:57;;;;;;;7.63;4.60;;;6.90;99.90;;;;;;5066065;28;20452;-69
2023/01/04 10:01:25;;;;;;;8.13;4.53;;;6.90;99.90;;;;;;5065219;28;20502;-69
2023/01/04 10:04:01;;;;;;;6.47;4.67;;;6.90;99.90;;;;;;5064986;28;20569;-68
2023/01/04 10:06:29;;;;;;;7.60;4.67;;;7.00;99.90;;;;;;5063326;28;20451;-68
2023/01/04 10:09:01;;;;;;;6.00;5.10;;;7.00;99.90;;;;;;5056302;28;20459;-68
2023/01/04 10:11:44;;;;;;;5.13;4.10;;;7.00;99.90;;;;;;5057076;28;20657;-68
2023/01/04 10:14:34;;;;;;;9.20;5.03;;;7.00;99.90;;;;;;5057521;28;20439;-68
2023/01/04 10:17:11;;;;;;;6.87;4.73;;;7.00;99.90;;;;;;5057003;28;20440;-69
2023/01/04 10:19:53;;;;;;;5.50;5.00;;;7.00;99.90;;;;;;5057148;28;20537;-67
2023/01/04 10:22:28;;;;;;;7.53;4.90;;;7.00;99.90;;;;;;5056737;28;20505;-68
2023/01/04 10:25:10;;;;;;;7.10;4.63;;;7.00;99.90;;;;;;5056307;28;20466;-69
2023/01/04 10:27:45;;;;;;;5.90;4.27;;;7.00;99.90;;;;;;5056071;28;20443;-68
2023/01/04 10:30:29;;;;;;;6.73;5.37;;;7.00;99.90;;;;;;5056269;28;20757;-67
2023/01/04 10:33:07;;;;;;;8.60;4.93;;;7.00;99.90;;;;;;5056167;28;20867;-68
2023/01/04 10:35:36;;;;;;;10.53;5.80;;;7.10;99.90;;;;;;5056491;28;20779;-68
2023/01/04 10:38:10;;;;;;;5.60;4.90;;;7.10;99.90;;;;;;5060545;28;20908;-69
2023/01/04 10:40:40;;;;;;;7.07;5.40;;;7.10;99.90;;;;;;5062946;28;20446;-69
2023/01/04 10:43:14;;;;;;;5.67;4.80;;;7.10;99.90;;;;;;5060697;28;20524;-70
2023/01/04 10:45:49;;;;;;;7.03;5.60;;;7.10;99.90;;;;;;5061738;28;20451;-69
2023/01/04 10:48:22;;;;;;;6.77;4.60;;;7.10;99.90;;;;;;5063018;28;20538;-69
2023/01/04 10:50:55;;;;;;;8.17;5.17;;;7.10;99.90;;;;;;5061488;28;20553;-68
2023/01/04 10:53:26;;;;;;;5.30;4.60;;;7.20;99.90;;;;;;5061544;28;20440;-69
2023/01/04 10:55:58;;;;;;;8.07;4.67;;;7.20;99.90;;;;;;5061062;28;20479;-70
2023/01/04 10:58:32;;;;;;;7.20;5.37;;;7.20;99.90;;;;;;5059545;28;20453;-68
2023/01/04 11:01:06;;;;;;;6.20;4.90;;;7.20;99.90;;;;;;5058539;28;20427;-69
2023/01/04 11:03:37;;;;;;;6.77;4.93;;;7.20;99.90;;;;;;5057556;28;20510;-69
2023/01/04 11:06:15;;;;;;;7.17;5.80;;;7.20;99.90;;;;;;5059967;28;20515;-69
2023/01/04 11:08:48;;;;;;;9.67;5.33;;;7.20;99.90;;;;;;5060015;28;20603;-69
2023/01/04 11:11:20;;;;;;;5.90;4.97;;;7.20;99.90;;;;;;5057726;28;20508;-69
2023/01/04 11:13:48;;;;;;;6.40;4.90;;;7.30;99.90;;;;;;5058297;28;20646;-69
2023/01/04 11:16:15;;;;;;;8.03;5.40;;;7.30;99.90;;;;;;5058367;28;20547;-69
2023/01/04 11:18:44;;;;;;;8.40;4.33;;;7.30;99.90;;;;;;5059205;28;20554;-70
2023/01/04 11:21:14;;;;;;;6.70;4.90;;;7.30;99.90;;;;;;5058159;28;20515;-70
2023/01/04 11:23:41;;;;;;;7.27;5.37;;;7.30;99.90;;;;;;5058608;28;20494;-70
2023/01/04 11:26:15;;;;;;;5.83;4.87;;;7.40;99.90;;;;;;5060459;28;20439;-70
2023/01/04 11:28:47;;;;;;;8.73;4.70;;;7.40;99.90;;;;;;5062226;28;20558;-69
2023/01/04 11:31:22;;;;;;;5.00;4.50;;;7.40;99.90;;;;;;5061506;28;20463;-69
2023/01/04 11:33:54;;;;;;;4.77;4.30;;;7.40;99.90;;;;;;5061707;28;20443;-69
2023/01/04 11:36:38;;;;;;;6.53;5.10;;;7.50;99.90;;;;;;5059847;28;20554;-69
2023/01/04 11:39:07;;;;;;;8.20;5.10;;;7.50;99.90;;;;;;5057416;28;20526;-70
2023/01/04 11:41:33;;;;;;;7.30;4.27;;;7.50;99.90;;;;;;5059144;28;20831;-70
2023/01/04 11:44:03;;;;;;;5.33;4.03;;;7.60;99.90;;;;;;5058503;28;20815;-69
2023/01/04 11:46:32;;;;;;;5.23;4.00;;;7.60;99.90;;;;;;5055716;28;20978;-70
2023/01/04 11:48:59;;;;;;;5.03;4.17;;;7.60;99.90;;;;;;5055919;28;20546;-69
2023/01/04 11:51:39;;;;;;;8.23;4.40;;;7.60;99.90;;;;;;5056767;28;20465;-75
2023/01/04 11:54:18;;;;;;;5.70;4.20;;;7.60;99.90;;;;;;5056398;28;20857;-69
2023/01/04 11:57:02;;;;;;;6.10;4.00;;;7.70;99.90;;;;;;5057850;28;20439;-69
2023/01/04 11:59:29;;;;;;;5.10;4.27;;;7.70;99.90;;;;;;5059041;28;20783;-67
2023/01/04 12:02:22;;;;;;;5.00;3.83;;;7.70;99.90;;;;;;5057675;28;20477;-70
2023/01/04 12:04:51;;;;;;;6.20;4.20;;;7.70;99.90;;;;;;5058504;28;20489;-69
2023/01/04 12:07:28;;;;;;;5.40;3.90;;;7.80;99.90;;;;;;5057319;28;20541;-69
2023/01/04 12:09:55;;;;;;;5.83;3.83;;;7.80;99.90;;;;;;5059468;28;20547;-69
2023/01/04 12:12:27;;;;;;;5.90;4.13;;;7.80;99.90;;;;;;5060051;28;20459;-70
2023/01/04 12:14:55;;;;;;;5.40;3.77;;;7.80;99.90;;;;;;5060379;28;20975;-70
2023/01/04 12:17:26;;;;;;;4.73;3.73;;;7.80;99.90;;;;;;5060821;28;20523;-69
2023/01/04 12:19:56;;;;;;;4.27;3.87;;;7.90;99.90;;;;;;5061115;28;20527;-69
2023/01/04 12:22:31;;;;;;;4.60;4.20;;;8.00;99.90;;;;;;5060321;28;20493;-70
2023/01/04 12:24:59;;;;;;;7.80;4.03;;;8.00;99.90;;;;;;5060297;28;20462;-68
2023/01/04 12:27:26;;;;;;;3.83;3.53;;;8.00;99.90;;;;;;5060462;28;20962;-71
2023/01/04 12:29:59;;;;;;;8.00;3.77;;;7.90;99.90;;;;;;5061153;28;20550;-69
2023/01/04 12:32:46;;;;;;;4.40;3.90;;;7.90;99.90;;;;;;5061966;28;20439;-68
2023/01/04 12:36:02;;;;;;;4.70;4.20;;;7.90;99.90;;;;;;5062799;28;20947;-68
2023/01/04 12:38:59;;;;;;;6.63;4.10;;;8.00;99.90;;;;;;5062401;28;20951;-69
2023/01/04 12:42:16;;;;;;;6.00;4.07;;;8.00;99.90;;;;;;5060579;28;20451;-69
2023/01/04 12:45:19;;;;;;;5.43;4.13;;;8.00;99.90;;;;;;5060437;28;20470;-70
2023/01/04 12:50:52;;;;;;;7.80;4.57;;;8.00;99.90;;;;;;5060470;28;20430;-70
2023/01/04 12:53:52;;;;;;;4.60;3.40;;;8.00;99.90;;;;;;5060306;28;20460;-69
2023/01/04 12:56:20;;;;;;;5.13;4.00;;;8.00;99.90;;;;;;5059527;28;20443;-68
2023/01/04 12:59:06;;;;;;;5.00;3.40;;;8.00;99.90;;;;;;5060623;28;20454;-67
2023/01/04 13:01:34;;;;;;;4.43;3.63;;;8.00;99.90;;;;;;5061138;28;20439;-68
2023/01/04 13:04:04;;;;;;;4.50;3.70;;;8.00;99.90;;;;;;5060890;28;20483;-69
2023/01/04 13:06:36;;;;;;;4.40;3.33;;;8.00;99.90;;;;;;5058945;28;20451;-70
2023/01/04 13:09:09;;;;;;;6.57;3.73;;;8.00;99.90;;;;;;5060041;28;20444;-69
2023/01/04 13:11:55;;;;;;;4.40;4.00;;;8.00;99.90;;;;;;5059589;28;20963;-68
2023/01/04 13:14:30;;;;;;;7.97;3.90;;;8.00;99.90;;;;;;5059753;28;20445;-69
2023/01/04 13:17:14;;;;;;;4.40;4.00;;;8.00;99.90;;;;;;5059590;28;20850;-70
2023/01/04 13:19:42;;;;;;;5.20;4.00;;;8.00;99.90;;;;;;5059578;28;20536;-68
2023/01/04 13:22:19;;;;;;;5.17;4.10;;;8.00;99.90;;;;;;5059472;28;20523;-69
2023/01/04 13:24:49;;;;;;;4.93;4.10;;;8.00;99.90;;;;;;5060094;28;20467;-69
2023/01/04 13:27:19;;;;;;;3.90;3.57;;;8.00;99.90;;;;;;5059058;28;20469;-68
2023/01/04 13:29:47;;;;;;;4.37;3.97;;;8.00;99.90;;;;;;5058150;28;20547;-69
2023/01/04 13:32:20;;;;;;;4.70;4.30;;;8.00;99.90;;;;;;5058105;28;20459;-69
2023/01/04 13:34:51;;;;;;;6.40;4.40;;;8.10;99.90;;;;;;5057996;28;20439;-69
2023/01/04 13:37:29;;;;;;;6.20;4.40;;;8.10;99.90;;;;;;5058564;28;20449;-69
2023/01/04 13:40:21;;;;;;;7.50;4.27;;;8.10;99.90;;;;;;5057672;28;20534;-69
2023/01/04 13:42:56;;;;;;;4.67;4.00;;;8.10;99.90;;;;;;5058009;28;20479;-68
2023/01/04 13:45:34;;;;;;;6.37;4.60;;;8.10;99.90;;;;;;5059022;28;20467;-68
2023/01/04 13:48:03;;;;;;;4.10;3.70;;;8.10;99.90;;;;;;5060209;28;20494;-69
2023/01/04 13:50:34;;;;;;;5.83;4.20;;;8.10;99.90;;;;;;5060723;28;20491;-69
2023/01/04 13:53:01;;;;;;;5.70;4.37;;;8.10;99.90;;;;;;5061485;28;20526;-70
2023/01/04 13:55:29;;;;;;;4.90;4.30;;;8.20;99.90;;;;;;5061738;28;20542;-70
2023/01/04 13:57:59;;;;;;;5.67;4.53;;;8.20;99.90;;;;;;5079439;28;20451;-69
2023/01/04 14:00:30;;;;;;;6.93;4.20;;;8.10;99.90;;;;;;5077623;28;20545;-70
2023/01/04 14:03:26;;;;;;;5.20;4.70;;;8.20;99.90;;;;;;5077397;28;20454;-68
2023/01/04 14:05:56;;;;;;;5.20;4.70;;;8.20;99.90;;;;;;5041790;28;20525;-69